Time;durP1;ratioP1;P1;durP2;ratioP2;P2;SDS_P1;SDS_P2;PMS_P1;PMS_P2;Temp;Humidity;BMP_temperature;BMP_pressure;BME280_temperature;BME280_humidity;BME280_pressure;Samples;Min_cycle;Max_cycle;Signal;HPM_P1;HPM_P2
2022/04/03 00:01:17;;;;;;;1.80;1.70;;;;;;;11.07;85.01;98506.75;5133658;27;20192;-68
2022/04/03 00:03:44;;;;;;;1.70;1.60;;;;;;;11.10;84.83;98503.63;5134187;27;20192;-68
2022/04/03 00:06:12;;;;;;;1.77;1.67;;;;;;;11.18;85.47;98505.19;5134122;27;20191;-68
2022/04/03 00:08:39;;;;;;;1.40;1.40;;;;;;;11.19;84.93;98501.47;5133817;27;20200;-68
2022/04/03 00:11:05;;;;;;;2.63;1.73;;;;;;;11.10;84.63;98497.50;5133649;27;20217;-68
2022/04/03 00:13:32;;;;;;;1.97;1.87;;;;;;;10.84;85.22;98499.44;5133493;27;20192;-68
2022/04/03 00:15:59;;;;;;;2.10;2.00;;;;;;;10.76;85.70;98496.25;5132983;27;20199;-68
2022/04/03 00:18:26;;;;;;;2.07;1.97;;;;;;;10.76;87.30;98506.88;5132685;27;20224;-68
2022/04/03 00:20:52;;;;;;;2.37;2.27;;;;;;;10.67;87.03;98508.22;5133039;27;20198;-67
2022/04/03 00:23:23;;;;;;;4.27;2.10;;;;;;;10.63;86.79;98501.72;5133565;27;20287;-68
2022/04/03 00:25:50;;;;;;;2.07;1.97;;;;;;;10.47;87.12;98494.31;5134170;27;20183;-68
2022/04/03 00:28:17;;;;;;;2.00;1.80;;;;;;;10.47;87.13;98502.28;5133251;27;20191;-68
2022/04/03 00:30:44;;;;;;;2.50;2.30;;;;;;;10.37;87.42;98499.31;5133147;27;20275;-68
2022/04/03 00:33:12;;;;;;;2.17;2.00;;;;;;;10.34;87.71;98497.91;5133434;27;20236;-68
2022/04/03 00:35:38;;;;;;;2.37;2.23;;;;;;;10.29;87.95;98504.91;5133225;28;20196;-68
2022/04/03 00:38:05;;;;;;;2.07;2.07;;;;;;;10.24;88.01;98496.78;5132895;27;20723;-68
2022/04/03 00:40:34;;;;;;;2.00;1.90;;;;;;;10.38;86.95;98493.00;5132809;28;20198;-68
2022/04/03 00:43:01;;;;;;;2.13;2.03;;;;;;;10.50;86.92;98472.66;5133092;28;20281;-68
2022/04/03 00:45:27;;;;;;;1.90;1.80;;;;;;;10.64;85.98;98458.19;5133115;28;20318;-68
2022/04/03 00:47:56;;;;;;;2.50;2.10;;;;;;;10.78;85.70;98457.00;5132757;28;20194;-68
2022/04/03 00:50:23;;;;;;;2.13;2.03;;;;;;;10.86;85.73;98460.19;5132569;28;20218;-68
2022/04/03 00:52:50;;;;;;;1.70;1.60;;;;;;;10.89;85.28;98453.59;5133025;28;20196;-68
2022/04/03 00:55:17;;;;;;;2.77;1.77;;;;;;;10.89;85.83;98443.81;5133212;28;20187;-68
2022/04/03 00:57:45;;;;;;;2.17;1.87;;;;;;;10.92;85.65;98447.84;5133190;28;20267;-68
2022/04/03 01:00:13;;;;;;;2.20;2.10;;;;;;;10.96;85.44;98449.81;5132566;28;20198;-68
2022/04/03 01:02:40;;;;;;;2.30;2.20;;;;;;;11.02;86.14;98437.50;5132563;28;20569;-68
2022/04/03 01:05:08;;;;;;;2.60;1.90;;;;;;;11.08;85.65;98433.94;5132639;27;20657;-68
2022/04/03 01:07:35;;;;;;;2.20;1.97;;;;;;;11.14;85.53;98425.06;5133112;28;20194;-68
2022/04/03 01:10:02;;;;;;;1.90;1.80;;;;;;;11.22;85.44;98416.78;5132516;27;20268;-68
2022/04/03 01:12:29;;;;;;;2.00;1.90;;;;;;;11.29;84.70;98414.84;5132536;27;20636;-68
2022/04/03 01:14:57;;;;;;;3.83;2.00;;;;;;;11.31;83.03;98410.09;5132495;28;20244;-68
2022/04/03 01:17:24;;;;;;;2.27;2.07;;;;;;;11.34;84.06;98409.66;5133351;28;20246;-68
2022/04/03 01:19:50;;;;;;;2.37;2.27;;;;;;;11.37;84.25;98406.56;5132750;28;20248;-68
2022/04/03 01:22:17;;;;;;;2.20;2.10;;;;;;;11.27;84.72;98387.66;5132395;27;20268;-68
2022/04/03 01:24:44;;;;;;;2.60;2.10;;;;;;;11.27;83.51;98376.25;5132461;28;20180;-68
2022/04/03 01:27:13;;;;;;;2.07;1.97;;;;;;;11.31;83.38;98396.81;5132643;28;20189;-68
2022/04/03 01:29:39;;;;;;;2.57;2.37;;;;;;;11.28;82.65;98394.63;5136745;27;20290;-68
2022/04/03 01:32:07;;;;;;;2.53;2.23;;;;;;;11.30;83.63;98397.84;5136214;27;20275;-68
2022/04/03 01:34:34;;;;;;;6.63;6.23;;;;;;;11.34;84.04;98396.34;5136439;27;20245;-68
2022/04/03 01:37:01;;;;;;;3.93;3.03;;;;;;;11.27;84.13;98387.66;5136123;27;20197;-68
2022/04/03 01:39:28;;;;;;;2.87;2.67;;;;;;;11.17;82.65;98392.72;5136362;27;20278;-69
2022/04/03 01:41:55;;;;;;;2.47;2.37;;;;;;;11.13;82.97;98407.50;5136876;27;20195;-68
2022/04/03 01:44:23;;;;;;;2.20;2.10;;;;;;;11.12;83.46;98405.91;5136270;27;20192;-68
2022/04/03 01:46:50;;;;;;;2.47;2.37;;;;;;;11.13;83.79;98388.91;5136195;27;20192;-68
2022/04/03 01:49:16;;;;;;;2.97;2.63;;;;;;;11.11;83.66;98383.00;5135785;27;20223;-68
2022/04/03 01:51:43;;;;;;;2.37;2.27;;;;;;;11.14;84.24;98385.19;5135830;27;20217;-68
2022/04/03 01:54:10;;;;;;;2.53;2.43;;;;;;;11.09;83.79;98398.38;5136315;27;20262;-68
2022/04/03 01:56:37;;;;;;;3.10;2.90;;;;;;;11.02;83.66;98395.81;5136898;27;20633;-69
2022/04/03 01:59:04;;;;;;;4.63;3.70;;;;;;;11.07;84.62;98397.78;5136017;27;20200;-66
2022/04/03 02:01:34;;;;;;;4.43;4.03;;;;;;;11.14;84.40;98393.19;5135976;27;20200;-67
2022/04/03 02:04:03;;;;;;;7.63;3.73;;;;;;;11.17;84.57;98382.09;5135479;27;20192;-67
2022/04/03 02:06:30;;;;;;;3.73;3.30;;;;;;;11.19;83.27;98387.97;5135517;27;20284;-67
2022/04/03 02:08:57;;;;;;;3.10;2.90;;;;;;;11.20;84.22;98389.63;5135827;27;20247;-67
2022/04/03 02:11:23;;;;;;;3.90;3.50;;;;;;;11.11;84.53;98383.00;5135377;27;20221;-67
2022/04/03 02:13:51;;;;;;;2.90;2.80;;;;;;;11.11;84.57;98371.56;5135709;27;20197;-67
2022/04/03 02:16:18;;;;;;;3.07;2.83;;;;;;;11.03;84.48;98386.00;5135360;27;20196;-67
2022/04/03 02:18:46;;;;;;;3.47;3.27;;;;;;;10.93;84.73;98377.75;5135698;27;20228;-66
2022/04/03 02:21:12;;;;;;;2.87;2.47;;;;;;;10.92;85.01;98386.75;5135531;27;20636;-67
2022/04/03 02:23:39;;;;;;;3.70;3.40;;;;;;;10.83;86.54;98382.78;5135275;27;20279;-67
2022/04/03 02:26:06;;;;;;;4.13;3.70;;;;;;;10.86;86.30;98398.25;5135492;27;20191;-67
2022/04/03 02:28:33;;;;;;;3.90;3.57;;;;;;;10.85;86.64;98396.66;5135454;27;20189;-67
2022/04/03 02:30:59;;;;;;;3.07;2.90;;;;;;;10.87;86.01;98397.25;5136200;27;20228;-67
2022/04/03 02:33:26;;;;;;;3.50;3.20;;;;;;;10.81;85.75;98393.63;5135609;27;20192;-67
2022/04/03 02:35:54;;;;;;;4.53;4.13;;;;;;;10.80;85.43;98393.84;5134992;27;20191;-67
2022/04/03 02:38:21;;;;;;;4.00;3.70;;;;;;;10.80;84.91;98396.50;5134929;27;20191;-67
2022/04/03 02:40:47;;;;;;;5.90;4.03;;;;;;;10.90;85.18;98407.41;5134309;27;20688;-67
2022/04/03 02:43:14;;;;;;;4.47;4.10;;;;;;;10.84;85.29;98400.34;5134835;27;20721;-68
2022/04/03 02:45:41;;;;;;;4.23;3.13;;;;;;;10.87;85.26;98406.00;5135123;27;20196;-67
2022/04/03 02:48:09;;;;;;;3.17;3.00;;;;;;;10.90;84.56;98402.91;5135370;27;20202;-67
2022/04/03 02:50:36;;;;;;;2.60;2.40;;;;;;;10.90;83.83;98396.78;5134645;27;20276;-67
2022/04/03 02:53:04;;;;;;;2.63;2.43;;;;;;;10.83;82.90;98409.34;5134973;27;20200;-67
2022/04/03 02:55:31;;;;;;;3.10;3.00;;;;;;;10.69;83.12;98403.38;5134828;27;20635;-67
2022/04/03 02:57:58;;;;;;;5.90;4.00;;;;;;;10.72;83.02;98418.06;5134856;27;20247;-67
2022/04/03 03:00:25;;;;;;;3.90;3.60;;;;;;;10.69;82.83;98416.66;5134470;27;20751;-67
2022/04/03 03:02:52;;;;;;;5.10;4.07;;;;;;;10.55;83.19;98420.50;5134382;27;20653;-67
2022/04/03 03:05:20;;;;;;;7.40;4.43;;;;;;;10.38;83.67;98414.16;5134437;27;20219;-67
2022/04/03 03:07:47;;;;;;;6.13;3.97;;;;;;;10.36;83.87;98420.72;5134677;27;20249;-67
2022/04/03 03:10:16;;;;;;;4.47;4.10;;;;;;;10.42;85.09;98420.66;5135133;27;20228;-67
2022/04/03 03:12:44;;;;;;;4.23;3.93;;;;;;;10.45;84.56;98430.84;5134550;27;20244;-67
2022/04/03 03:15:11;;;;;;;5.90;4.53;;;;;;;10.49;83.83;98431.19;5134463;27;20195;-67
2022/04/03 03:17:39;;;;;;;5.13;4.83;;;;;;;10.53;83.34;98432.38;5135303;27;20213;-67
2022/04/03 03:20:06;;;;;;;5.27;4.63;;;;;;;10.59;83.77;98428.84;5134359;27;20205;-67
2022/04/03 03:22:33;;;;;;;5.13;4.63;;;;;;;10.67;83.67;98428.56;5135058;27;20219;-67
2022/04/03 03:25:00;;;;;;;4.27;3.97;;;;;;;10.72;82.47;98426.84;5135172;27;20187;-67
2022/04/03 03:27:28;;;;;;;3.63;3.33;;;;;;;10.74;81.98;98413.31;5134295;27;20187;-67
2022/04/03 03:29:55;;;;;;;4.00;3.67;;;;;;;10.82;81.99;98421.00;5133819;27;20196;-67
2022/04/03 03:32:23;;;;;;;5.87;3.57;;;;;;;10.86;81.14;98420.34;5133779;27;20192;-68
2022/04/03 03:34:50;;;;;;;5.37;3.67;;;;;;;10.89;80.68;98422.56;5133823;27;20232;-68
2022/04/03 03:37:17;;;;;;;3.57;3.27;;;;;;;10.88;80.96;98428.91;5134615;27;20200;-68
2022/04/03 03:39:44;;;;;;;9.37;4.53;;;;;;;10.79;80.75;98432.09;5134060;27;20190;-68
2022/04/03 03:42:11;;;;;;;3.90;3.70;;;;;;;10.74;81.54;98453.16;5133672;27;20204;-68
2022/04/03 03:44:39;;;;;;;5.63;4.33;;;;;;;10.57;81.59;98460.09;5133622;27;20676;-68
2022/04/03 03:47:07;;;;;;;4.60;4.30;;;;;;;10.61;83.16;98456.81;5133593;27;20196;-68
2022/04/03 03:49:34;;;;;;;4.37;3.97;;;;;;;10.66;83.24;98467.56;5133547;27;20195;-67
2022/04/03 03:52:01;;;;;;;4.93;4.43;;;;;;;10.62;82.56;98473.56;5132544;27;20218;-68
2022/04/03 03:54:27;;;;;;;4.43;4.10;;;;;;;10.54;83.28;98463.22;5134339;27;20191;-68
2022/04/03 03:56:54;;;;;;;6.43;3.90;;;;;;;10.55;82.88;98472.81;5133760;27;20247;-69
2022/04/03 03:59:21;;;;;;;4.17;3.97;;;;;;;10.49;83.97;98484.28;5133331;27;20285;-68
2022/04/03 04:01:49;;;;;;;4.50;4.10;;;;;;;10.47;83.33;98479.19;5133256;27;20200;-68
2022/04/03 04:04:15;;;;;;;5.37;4.07;;;;;;;10.47;83.73;98476.53;5133297;27;20675;-68
2022/04/03 04:06:42;;;;;;;4.87;4.30;;;;;;;10.45;83.87;98477.78;5133230;27;20195;-68
2022/04/03 04:09:09;;;;;;;4.00;3.80;;;;;;;10.44;84.16;98476.19;5133506;27;20190;-68
2022/04/03 04:11:36;;;;;;;5.83;3.93;;;;;;;10.50;83.90;98464.69;5133934;27;20219;-68
2022/04/03 04:14:02;;;;;;;5.57;4.10;;;;;;;10.57;83.34;98476.03;5133091;27;20719;-68
2022/04/03 04:16:29;;;;;;;8.97;3.67;;;;;;;10.50;83.06;98470.78;5133023;27;20286;-68
2022/04/03 04:18:57;;;;;;;4.80;3.87;;;;;;;10.44;84.55;98489.44;5132985;27;20195;-68
2022/04/03 04:21:24;;;;;;;5.57;4.10;;;;;;;10.43;84.63;98488.66;5133304;27;20193;-68
2022/04/03 04:23:50;;;;;;;4.43;4.13;;;;;;;10.48;84.38;98475.53;5134447;27;20303;-68
2022/04/03 04:26:19;;;;;;;4.20;3.80;;;;;;;10.57;83.62;98481.34;5133158;27;20252;-68
2022/04/03 04:28:48;;;;;;;4.00;3.80;;;;;;;10.55;85.04;98491.38;5132910;27;20202;-68
2022/04/03 04:31:15;;;;;;;4.90;4.53;;;;;;;10.50;83.94;98491.25;5133080;27;20601;-68
2022/04/03 04:33:42;;;;;;;4.30;3.90;;;;;;;10.57;84.77;98491.97;5133450;28;20214;-68
2022/04/03 04:36:10;;;;;;;4.10;3.90;;;;;;;10.66;84.83;98495.97;5133402;28;20191;-68
2022/04/03 04:38:37;;;;;;;6.57;4.33;;;;;;;10.60;85.44;98494.19;5132815;28;20717;-68
2022/04/03 04:41:04;;;;;;;5.07;4.47;;;;;;;10.64;85.73;98501.50;5132835;27;20192;-68
2022/04/03 04:43:30;;;;;;;6.03;4.60;;;;;;;10.63;84.89;98507.03;5132796;28;20253;-68
2022/04/03 04:45:57;;;;;;;9.97;8.00;;;;;;;10.54;85.44;98503.03;5133265;28;20566;-68
2022/04/03 04:48:24;;;;;;;6.23;5.27;;;;;;;10.52;85.59;98507.75;5132965;28;20193;-68
2022/04/03 04:50:51;;;;;;;13.40;5.87;;;;;;;10.56;85.74;98512.41;5132447;28;20609;-68
2022/04/03 04:53:19;;;;;;;8.57;5.33;;;;;;;10.58;85.43;98512.19;5133208;28;20185;-68
2022/04/03 04:55:46;;;;;;;7.10;5.03;;;;;;;10.64;85.75;98519.28;5132524;28;20199;-68
2022/04/03 04:58:12;;;;;;;9.57;5.33;;;;;;;10.65;85.67;98534.16;5132620;28;20733;-68
2022/04/03 05:00:39;;;;;;;9.20;5.73;;;;;;;10.72;85.43;98534.91;5133439;28;20194;-68
2022/04/03 05:03:06;;;;;;;12.67;5.70;;;;;;;10.80;84.08;98534.63;5134556;27;20216;-68
2022/04/03 05:05:32;;;;;;;8.70;5.33;;;;;;;10.75;84.90;98531.84;5136647;27;20248;-68
2022/04/03 05:08:01;;;;;;;9.80;5.17;;;;;;;10.80;84.00;98532.81;5136926;27;20194;-68
2022/04/03 05:10:31;;;;;;;8.20;5.93;;;;;;;10.86;84.12;98536.38;5136509;27;20271;-67
2022/04/03 05:12:59;;;;;;;8.20;5.37;;;;;;;10.84;84.76;98541.13;5137231;27;20187;-68
2022/04/03 05:15:28;;;;;;;11.00;5.47;;;;;;;10.94;84.92;98549.38;5136501;27;20215;-68
2022/04/03 05:17:55;;;;;;;11.13;5.70;;;;;;;11.02;84.34;98551.75;5137297;27;20551;-68
2022/04/03 05:20:22;;;;;;;6.97;5.80;;;;;;;11.07;83.76;98557.22;5136970;27;20187;-68
2022/04/03 05:22:49;;;;;;;8.47;5.50;;;;;;;11.14;82.54;98568.56;5136692;27;20223;-68
2022/04/03 05:25:16;;;;;;;10.63;6.57;;;;;;;11.13;82.04;98561.66;5136610;27;20192;-68
2022/04/03 05:27:44;;;;;;;7.20;6.60;;;;;;;11.21;82.04;98568.50;5137115;27;20196;-68
2022/04/03 05:30:13;;;;;;;5.60;5.20;;;;;;;11.22;80.43;98586.88;5136768;27;20574;-68
2022/04/03 05:32:40;;;;;;;5.70;5.13;;;;;;;11.18;79.95;98583.06;5136410;27;20229;-68
2022/04/03 05:35:09;;;;;;;8.43;4.80;;;;;;;11.19;79.84;98603.28;5136998;27;20617;-67
2022/04/03 05:37:36;;;;;;;7.73;5.63;;;;;;;11.09;80.01;98592.34;5136449;27;20230;-68
2022/04/03 05:40:04;;;;;;;5.60;5.30;;;;;;;11.19;79.45;98603.28;5136205;27;20198;-68
2022/04/03 05:42:33;;;;;;;5.40;4.90;;;;;;;11.27;78.67;98600.31;5136140;27;20294;-68
2022/04/03 05:45:01;;;;;;;8.63;5.43;;;;;;;11.11;77.96;98613.41;5136200;27;20271;-68
2022/04/03 05:47:28;;;;;;;8.60;5.13;;;;;;;10.78;77.86;98605.75;5135926;27;20191;-68
2022/04/03 05:49:54;;;;;;;8.70;5.43;;;;;;;10.92;77.17;98609.91;5135870;27;20731;-68
2022/04/03 05:52:21;;;;;;;5.10;4.33;;;;;;;11.57;73.85;98627.78;5136056;27;20643;-68
2022/04/03 05:54:48;;;;;;;10.03;4.30;;;;;;;12.53;70.75;98633.84;5136356;27;20565;-68
2022/04/03 05:57:15;;;;;;;5.17;3.77;;;;;;;13.48;65.79;98644.84;5135997;27;20260;-68
2022/04/03 05:59:41;;;;;;;3.83;3.40;;;;;;;14.04;63.56;98639.59;5135523;27;20196;-69
2022/04/03 06:02:12;;;;;;;4.07;3.13;;;;;;;14.21;60.56;98661.84;5132457;27;20205;-68
2022/04/03 06:04:39;;;;;;;2.77;2.50;;;;;;;15.13;59.64;98653.22;5135590;27;20186;-69
2022/04/03 06:07:07;;;;;;;5.50;2.70;;;;;;;15.94;56.31;98663.97;5135599;27;20190;-70
2022/04/03 06:09:34;;;;;;;2.53;2.33;;;;;;;16.38;51.92;98653.19;5135739;27;20186;-70
2022/04/03 06:12:00;;;;;;;2.30;2.03;;;;;;;16.85;49.08;98671.06;5135370;27;20274;-71
2022/04/03 06:14:27;;;;;;;1.70;1.60;;;;;;;17.20;48.57;98670.53;5134557;27;20243;-71
2022/04/03 06:16:54;;;;;;;2.53;1.90;;;;;;;17.25;46.71;98675.91;5136003;27;20194;-72
2022/04/03 06:19:22;;;;;;;2.00;1.90;;;;;;;17.22;47.50;98674.56;5135725;27;20182;-71
2022/04/03 06:21:48;;;;;;;1.97;1.87;;;;;;;17.22;48.10;98687.16;5135023;27;20244;-71
2022/04/03 06:24:15;;;;;;;2.07;1.87;;;;;;;17.44;48.17;98675.25;5135729;27;20286;-72
2022/04/03 06:26:42;;;;;;;2.13;1.90;;;;;;;17.42;46.66;98682.78;5135310;27;20191;-71
2022/04/03 06:29:08;;;;;;;1.80;1.60;;;;;;;17.43;46.82;98686.28;5135130;27;20272;-73
2022/04/03 06:31:35;;;;;;;2.20;2.10;;;;;;;16.82;47.32;98684.19;5135045;27;20221;-72
2022/04/03 06:34:02;;;;;;;3.60;1.67;;;;;;;16.87;46.77;98685.03;5134754;27;20194;-71
2022/04/03 06:36:30;;;;;;;1.60;1.50;;;;;;;17.36;46.28;98673.03;5134988;27;20253;-72
2022/04/03 06:38:57;;;;;;;2.13;1.77;;;;;;;17.93;45.67;98673.91;5134684;27;20193;-71
2022/04/03 06:41:24;;;;;;;2.00;1.90;;;;;;;18.03;44.94;98682.00;5134871;27;20193;-72
2022/04/03 06:43:50;;;;;;;2.50;1.60;;;;;;;18.04;44.15;98680.94;5134675;27;20190;-73
2022/04/03 06:46:17;;;;;;;1.50;1.40;;;;;;;17.94;44.17;98680.09;5134703;27;20731;-72
2022/04/03 06:48:44;;;;;;;3.13;1.80;;;;;;;17.67;45.40;98676.72;5134363;27;20251;-72
2022/04/03 06:51:11;;;;;;;2.43;1.63;;;;;;;18.20;43.68;98684.47;5134630;27;20261;-71
2022/04/03 06:53:39;;;;;;;1.60;1.50;;;;;;;18.67;44.27;98693.22;5134154;27;20659;-71
2022/04/03 06:56:05;;;;;;;4.57;2.27;;;;;;;19.08;41.27;98700.25;5134248;27;20193;-72
2022/04/03 06:58:32;;;;;;;1.87;1.77;;;;;;;19.11;42.26;98694.34;5134350;27;20198;-71
2022/04/03 07:00:59;;;;;;;2.47;1.80;;;;;;;19.54;41.90;98697.25;5134167;27;20190;-73
2022/04/03 07:03:26;;;;;;;1.57;1.47;;;;;;;19.45;41.31;98688.09;5133838;27;20194;-72
2022/04/03 07:05:53;;;;;;;2.90;1.80;;;;;;;19.74;41.47;98691.00;5134013;27;20231;-72
2022/04/03 07:08:20;;;;;;;1.70;1.60;;;;;;;20.21;39.10;98696.75;5134099;27;20194;-72
2022/04/03 07:10:49;;;;;;;3.30;1.97;;;;;;;20.03;37.74;98689.28;5134115;27;20189;-72
2022/04/03 07:13:16;;;;;;;1.63;1.53;;;;;;;19.95;38.98;98696.06;5133611;27;20221;-72
2022/04/03 07:15:43;;;;;;;1.60;1.50;;;;;;;20.35;39.70;98693.19;5134174;27;20193;-72
2022/04/03 07:18:10;;;;;;;2.30;1.40;;;;;;;20.46;38.77;98700.16;5134361;27;20618;-73
2022/04/03 07:20:36;;;;;;;1.77;1.60;;;;;;;19.94;38.85;98699.03;5133992;27;20269;-74
2022/04/03 07:23:03;;;;;;;2.13;1.33;;;;;;;19.96;38.88;98713.84;5133658;27;20230;-73
2022/04/03 07:25:30;;;;;;;3.97;1.27;;;;;;;19.98;38.65;98705.47;5134067;27;20262;-73
2022/04/03 07:27:58;;;;;;;3.07;1.00;;;;;;;19.99;37.86;98720.56;5133782;27;20190;-74
2022/04/03 07:30:25;;;;;;;2.97;1.67;;;;;;;20.19;38.78;98709.72;5133563;27;20194;-73
2022/04/03 07:32:51;;;;;;;10.53;1.73;;;;;;;20.50;38.47;98716.59;5133662;27;20217;-73
2022/04/03 07:35:18;;;;;;;2.23;2.03;;;;;;;20.80;37.22;98719.09;5133403;27;20194;-72
2022/04/03 07:37:45;;;;;;;1.70;1.60;;;;;;;20.92;38.19;98716.06;5133700;27;20189;-73
2022/04/03 07:40:13;;;;;;;1.80;1.50;;;;;;;21.36;36.61;98714.88;5133429;27;20190;-73
2022/04/03 07:42:40;;;;;;;7.37;5.80;;;;;;;21.30;35.33;98721.44;5133539;27;20193;-73
2022/04/03 07:45:11;;;;;;;8.93;1.80;;;;;;;21.15;35.80;98713.44;5133461;27;20190;-73
2022/04/03 07:47:45;;;;;;;3.50;1.33;;;;;;;21.28;35.36;98704.72;5133084;27;20190;-73
2022/04/03 07:50:12;;;;;;;3.73;1.70;;;;;;;20.92;34.98;98729.56;5133614;27;20181;-73
2022/04/03 07:52:39;;;;;;;1.00;1.00;;;;;;;20.84;35.02;98722.84;5133353;27;20221;-73
2022/04/03 07:55:06;;;;;;;4.27;1.40;;;;;;;20.69;34.60;98725.63;5133369;27;20250;-73
2022/04/03 07:57:33;;;;;;;5.70;1.30;;;;;;;20.93;34.71;98723.06;5133331;27;20626;-73
2022/04/03 08:00:00;;;;;;;1.50;1.40;;;;;;;21.35;33.66;98721.38;5133372;27;20194;-73
2022/04/03 08:02:28;;;;;;;6.30;1.00;;;;;;;21.71;33.84;98721.88;5133013;27;20194;-74
2022/04/03 08:04:55;;;;;;;2.33;1.23;;;;;;;21.93;32.81;98722.97;5132967;27;20683;-73
2022/04/03 08:07:21;;;;;;;4.97;1.20;;;;;;;21.46;31.50;98728.31;5132921;27;20247;-74
2022/04/03 08:09:48;;;;;;;9.37;1.90;;;;;;;21.08;32.08;98712.97;5132853;27;20658;-73
2022/04/03 08:12:15;;;;;;;1.13;1.00;;;;;;;21.44;32.73;98719.66;5133135;27;20221;-73
2022/04/03 08:14:42;;;;;;;0.90;0.90;;;;;;;21.69;32.63;98724.84;5133193;27;20193;-74
2022/04/03 08:17:09;;;;;;;4.13;3.83;;;;;;;21.50;31.55;98726.66;5133133;27;20194;-74
2022/04/03 08:19:37;;;;;;;1.63;1.30;;;;;;;21.23;31.88;98726.34;5132571;27;20280;-74
2022/04/03 08:22:05;;;;;;;2.13;1.00;;;;;;;20.06;30.49;98738.06;5132782;27;20194;-73
2022/04/03 08:24:32;;;;;;;3.13;1.27;;;;;;;19.96;31.65;98742.69;5132780;27;20686;-72
2022/04/03 08:26:59;;;;;;;1.50;1.03;;;;;;;19.43;31.77;98748.72;5132599;27;20563;-73
2022/04/03 08:29:25;;;;;;;1.07;0.80;;;;;;;19.66;31.35;98753.53;5132532;27;20559;-73
2022/04/03 08:31:52;;;;;;;2.80;0.60;;;;;;;20.11;31.83;98745.38;5132937;27;20218;-73
2022/04/03 08:34:19;;;;;;;1.10;1.00;;;;;;;20.39;31.38;98747.41;5132675;27;20194;-72
2022/04/03 08:36:47;;;;;;;2.63;1.07;;;;;;;20.77;31.47;98741.25;5132755;28;20194;-72
2022/04/03 08:39:13;;;;;;;2.00;1.03;;;;;;;20.71;30.98;98750.47;5131706;27;20262;-73
2022/04/03 08:41:40;;;;;;;2.40;0.70;;;;;;;20.18;32.25;98745.88;5132729;28;20192;-73
2022/04/03 08:44:08;;;;;;;0.70;0.70;;;;;;;19.83;31.54;98754.84;5132156;28;20635;-72
2022/04/03 08:46:35;;;;;;;3.33;0.97;;;;;;;19.79;32.40;98750.28;5132328;28;20281;-72
2022/04/03 08:49:02;;;;;;;1.53;1.00;;;;;;;19.96;33.13;98758.84;5131828;27;20746;-73
2022/04/03 08:51:32;;;;;;;1.77;1.00;;;;;;;20.12;33.31;98746.97;5132394;28;20186;-74
2022/04/03 08:54:00;;;;;;;1.20;1.10;;;;;;;19.81;33.27;98750.81;5131897;28;20279;-73
2022/04/03 08:56:27;;;;;;;1.17;0.97;;;;;;;19.85;34.00;98746.50;5132218;28;20569;-73
2022/04/03 08:58:54;;;;;;;0.90;0.80;;;;;;;19.85;33.08;98751.91;5132189;28;20246;-73
2022/04/03 09:01:20;;;;;;;1.43;1.10;;;;;;;19.96;33.10;98750.75;5133366;28;20194;-73
2022/04/03 09:03:47;;;;;;;1.67;1.10;;;;;;;19.75;32.09;98754.59;5130890;28;20192;-73
2022/04/03 09:06:15;;;;;;;1.63;1.10;;;;;;;19.66;31.19;98748.16;5133192;28;20262;-73
2022/04/03 09:08:42;;;;;;;0.87;0.87;;;;;;;19.22;32.50;98752.47;5132148;28;20197;-73
2022/04/03 09:11:11;;;;;;;7.77;1.60;;;;;;;19.20;32.27;98743.88;5132028;28;20607;-73
2022/04/03 09:13:39;;;;;;;1.37;0.87;;;;;;;19.02;31.44;98757.84;5132040;28;20273;-74
2022/04/03 09:16:07;;;;;;;2.10;1.03;;;;;;;19.54;31.92;98761.91;5131917;28;20193;-72
2022/04/03 09:18:46;;;;;;;0.80;0.80;;;;;;;19.59;29.80;98758.38;5132172;28;20262;-73
2022/04/03 09:21:21;;;;;;;3.50;1.50;;;;;;;19.56;29.56;98764.34;5133055;28;20285;-74
2022/04/03 09:24:02;;;;;;;0.67;0.67;;;;;;;19.87;28.68;98768.59;5132907;27;20225;-73
2022/04/03 09:26:31;;;;;;;3.40;1.20;;;;;;;20.16;28.71;98753.44;5132199;28;20190;-73
2022/04/03 09:29:11;;;;;;;2.23;0.70;;;;;;;20.18;28.29;98762.06;5132930;28;20254;-74
2022/04/03 09:31:39;;;;;;;2.07;0.80;;;;;;;19.65;28.82;98760.00;5132475;28;20608;-73
2022/04/03 09:34:07;;;;;;;0.80;0.80;;;;;;;19.52;30.45;98760.59;5131550;28;20229;-74
2022/04/03 09:36:35;;;;;;;16.40;1.30;;;;;;;19.69;29.99;98758.41;5132770;28;20197;-73
2022/04/03 09:39:07;;;;;;;0.70;0.70;;;;;;;19.20;30.00;98770.78;5132501;28;20186;-74
2022/04/03 09:41:53;;;;;;;1.00;0.90;;;;;;;19.45;30.54;98770.81;5132497;28;20289;-73
2022/04/03 09:44:25;;;;;;;2.13;1.00;;;;;;;20.02;30.06;98769.34;5132805;27;20248;-74
2022/04/03 09:47:32;;;;;;;0.90;0.90;;;;;;;20.08;29.12;98767.44;5132186;28;20182;-74
2022/04/03 09:50:01;;;;;;;2.63;0.97;;;;;;;19.86;30.42;98769.69;5117937;27;20194;-73
2022/04/03 09:52:41;;;;;;;3.43;1.13;;;;;;;19.94;30.81;98766.41;5136535;27;20557;-73
2022/04/03 09:55:14;;;;;;;3.07;1.07;;;;;;;20.19;30.07;98775.28;5135687;27;20189;-74
2022/04/03 09:57:42;;;;;;;0.80;0.80;;;;;;;20.08;29.71;98770.13;5135795;27;20183;-74
2022/04/03 10:00:10;;;;;;;1.07;1.07;;;;;;;20.41;28.89;98785.69;5135899;27;20190;-74
2022/04/03 10:02:37;;;;;;;0.60;0.60;;;;;;;20.59;29.22;98775.06;5135875;27;20194;-74
2022/04/03 10:05:04;;;;;;;1.97;0.90;;;;;;;20.76;29.73;98768.50;5135811;27;20193;-75
2022/04/03 10:07:32;;;;;;;0.97;0.97;;;;;;;20.66;30.08;98766.69;5135392;27;20194;-74
2022/04/03 10:10:00;;;;;;;1.77;0.80;;;;;;;20.23;29.37;98764.75;5135360;27;20186;-72
2022/04/03 10:12:27;;;;;;;2.97;1.00;;;;;;;20.10;30.47;98776.13;5135273;27;20602;-73
2022/04/03 10:14:55;;;;;;;1.23;0.90;;;;;;;20.37;28.92;98777.34;5135231;27;20616;-73
2022/04/03 10:17:22;;;;;;;1.80;0.87;;;;;;;20.20;29.94;98765.28;5135640;27;20280;-73
2022/04/03 10:19:51;;;;;;;2.40;0.80;;;;;;;20.02;30.44;98763.94;5135186;27;20674;-73
2022/04/03 10:22:23;;;;;;;0.80;0.80;;;;;;;19.78;31.75;98762.16;5135121;27;20229;-73
2022/04/03 10:24:54;;;;;;;1.87;1.73;;;;;;;19.88;30.74;98779.09;5136080;27;20188;-74
2022/04/03 10:27:25;;;;;;;1.17;1.00;;;;;;;20.29;30.66;98780.63;5136319;27;20186;-74
2022/04/03 10:29:58;;;;;;;5.57;1.67;;;;;;;19.98;28.74;98780.97;5135802;27;20243;-73
2022/04/03 10:32:27;;;;;;;6.00;0.80;;;;;;;19.44;29.26;98782.66;5134970;27;20676;-73
2022/04/03 10:34:57;;;;;;;13.87;1.50;;;;;;;18.99;29.88;98790.69;5134900;27;20198;-74
2022/04/03 10:37:26;;;;;;;0.73;0.73;;;;;;;19.01;30.10;98775.88;5136169;27;20245;-74
2022/04/03 10:39:55;;;;;;;1.47;0.90;;;;;;;18.99;29.81;98785.31;5135098;27;20239;-73
2022/04/03 10:42:26;;;;;;;1.07;0.80;;;;;;;18.65;30.51;98778.75;5135071;27;20277;-72
2022/04/03 10:45:28;;;;;;;1.37;0.60;;;;;;;18.82;30.55;98780.16;5135284;27;20225;-73
2022/04/03 10:48:28;;;;;;;0.70;0.70;;;;;;;19.30;30.13;98784.28;5071469;28;20232;-73
2022/04/03 10:51:06;;;;;;;1.70;0.70;;;;;;;19.36;30.28;98791.28;5135076;27;20193;-74
2022/04/03 10:53:34;;;;;;;0.70;0.70;;;;;;;19.58;29.86;98786.41;5135472;27;20210;-73
2022/04/03 10:56:07;;;;;;;12.60;2.13;;;;;;;19.70;30.32;98782.38;5134528;27;20242;-73
2022/04/03 10:58:48;;;;;;;26.30;2.97;;;;;;;19.33;30.00;98779.19;5134955;27;20569;-73
2022/04/03 11:01:28;;;;;;;0.90;0.90;;;;;;;18.80;30.03;98784.19;5133911;27;20257;-73
2022/04/03 11:04:00;;;;;;;1.77;1.03;;;;;;;19.00;31.04;98781.53;5134350;27;20738;-73
2022/04/03 11:06:30;;;;;;;2.07;0.87;;;;;;;19.24;30.24;98778.06;5134916;27;20201;-72
2022/04/03 11:09:08;;;;;;;3.30;0.80;;;;;;;19.28;29.48;98789.13;5134289;27;20211;-74
2022/04/03 11:11:39;;;;;;;3.40;0.90;;;;;;;19.44;29.71;98782.66;5134194;27;20194;-74
2022/04/03 11:14:07;;;;;;;0.80;0.80;;;;;;;19.62;29.27;98788.31;5135349;27;20206;-75
2022/04/03 11:16:54;;;;;;;1.53;0.80;;;;;;;19.40;29.63;98781.59;5134466;27;20186;-73
2022/04/03 11:19:35;;;;;;;7.03;1.30;;;;;;;19.05;29.87;98784.22;5134885;27;20186;-72
2022/04/03 11:22:03;;;;;;;5.50;1.00;;;;;;;19.39;29.76;98785.34;5133655;27;20195;-72
2022/04/03 11:24:30;;;;;;;1.20;0.60;;;;;;;19.27;28.44;98787.50;5135167;27;20190;-73
2022/04/03 11:26:57;;;;;;;1.73;1.10;;;;;;;19.40;28.12;98786.97;5134152;27;20221;-74
2022/04/03 11:29:23;;;;;;;0.90;0.90;;;;;;;19.45;28.10;98781.59;5133805;27;20256;-74
2022/04/03 11:31:51;;;;;;;1.10;0.90;;;;;;;18.97;29.43;98782.06;5133536;27;20727;-73
2022/04/03 11:34:19;;;;;;;10.93;2.37;;;;;;;19.25;29.53;98773.50;5133510;27;20578;-73
2022/04/03 11:36:46;;;;;;;0.90;0.90;;;;;;;19.08;28.36;98778.31;5133576;27;20628;-73
2022/04/03 11:39:12;;;;;;;1.10;1.00;;;;;;;19.40;28.36;98770.81;5133597;27;20676;-73